sensor_id;sensor_type;location;lat;lon;timestamp;temperature;humidity
76470;DHT22;65305;52.870;13.660;2023-03-04T00:01:47;5.10;55.80
76470;DHT22;65305;52.870;13.660;2023-03-04T00:04:13;5.10;55.70
76470;DHT22;65305;52.870;13.660;2023-03-04T00:06:40;5.10;55.70
76470;DHT22;65305;52.870;13.660;2023-03-04T00:09:06;5.00;55.80
76470;DHT22;65305;52.870;13.660;2023-03-04T00:11:33;5.10;55.80
76470;DHT22;65305;52.870;13.660;2023-03-04T00:13:59;5.10;55.80
76470;DHT22;65305;52.870;13.660;2023-03-04T00:16:26;5.00;56.00
76470;DHT22;65305;52.870;13.660;2023-03-04T00:18:53;5.00;55.90
76470;DHT22;65305;52.870;13.660;2023-03-04T00:21:20;5.00;56.00
76470;DHT22;65305;52.870;13.660;2023-03-04T00:23:47;5.00;56.00
76470;DHT22;65305;52.870;13.660;2023-03-04T00:26:14;5.00;56.00
76470;DHT22;65305;52.870;13.660;2023-03-04T00:28:40;5.00;56.10
76470;DHT22;65305;52.870;13.660;2023-03-04T00:31:07;5.00;56.10
76470;DHT22;65305;52.870;13.660;2023-03-04T00:33:34;5.00;56.00
76470;DHT22;65305;52.870;13.660;2023-03-04T00:36:00;5.00;56.20
76470;DHT22;65305;52.870;13.660;2023-03-04T00:38:27;5.00;56.30
76470;DHT22;65305;52.870;13.660;2023-03-04T00:40:54;5.00;56.30
76470;DHT22;65305;52.870;13.660;2023-03-04T00:43:20;5.00;56.20
76470;DHT22;65305;52.870;13.660;2023-03-04T00:45:47;5.00;56.20
76470;DHT22;65305;52.870;13.660;2023-03-04T00:48:13;5.00;56.30
76470;DHT22;65305;52.870;13.660;2023-03-04T00:50:41;5.00;56.40
76470;DHT22;65305;52.870;13.660;2023-03-04T00:53:08;5.00;56.30
76470;DHT22;65305;52.870;13.660;2023-03-04T00:55:35;5.00;56.30
76470;DHT22;65305;52.870;13.660;2023-03-04T00:58:01;5.00;56.40
76470;DHT22;65305;52.870;13.660;2023-03-04T01:00:28;5.00;56.30
76470;DHT22;65305;52.870;13.660;2023-03-04T01:02:54;5.00;56.50
76470;DHT22;65305;52.870;13.660;2023-03-04T01:05:21;5.00;56.50
76470;DHT22;65305;52.870;13.660;2023-03-04T01:07:47;5.00;56.30
76470;DHT22;65305;52.870;13.660;2023-03-04T01:10:14;5.00;56.40
76470;DHT22;65305;52.870;13.660;2023-03-04T01:12:41;5.00;56.60
76470;DHT22;65305;52.870;13.660;2023-03-04T01:15:08;5.00;56.40
76470;DHT22;65305;52.870;13.660;2023-03-04T01:17:35;5.00;56.50
76470;DHT22;65305;52.870;13.660;2023-03-04T01:20:02;5.00;56.50
76470;DHT22;65305;52.870;13.660;2023-03-04T01:22:29;5.00;56.50
76470;DHT22;65305;52.870;13.660;2023-03-04T01:24:55;5.00;56.40
76470;DHT22;65305;52.870;13.660;2023-03-04T01:27:22;5.00;56.50
76470;DHT22;65305;52.870;13.660;2023-03-04T01:29:48;5.00;56.50
76470;DHT22;65305;52.870;13.660;2023-03-04T01:32:15;5.00;56.50
76470;DHT22;65305;52.870;13.660;2023-03-04T01:34:41;5.00;56.50
76470;DHT22;65305;52.870;13.660;2023-03-04T01:37:08;5.00;56.40
76470;DHT22;65305;52.870;13.660;2023-03-04T01:39:34;5.00;56.50
76470;DHT22;65305;52.870;13.660;2023-03-04T01:42:01;4.90;56.30
76470;DHT22;65305;52.870;13.660;2023-03-04T01:44:27;4.90;56.50
76470;DHT22;65305;52.870;13.660;2023-03-04T01:46:54;4.90;56.40
76470;DHT22;65305;52.870;13.660;2023-03-04T01:49:21;4.90;56.30
76470;DHT22;65305;52.870;13.660;2023-03-04T01:51:48;4.90;56.30
76470;DHT22;65305;52.870;13.660;2023-03-04T01:54:17;4.90;56.30
76470;DHT22;65305;52.870;13.660;2023-03-04T01:56:45;4.90;56.30
76470;DHT22;65305;52.870;13.660;2023-03-04T01:59:15;4.90;56.20
76470;DHT22;65305;52.870;13.660;2023-03-04T02:01:43;4.90;56.20
76470;DHT22;65305;52.870;13.660;2023-03-04T02:04:10;4.90;56.10
76470;DHT22;65305;52.870;13.660;2023-03-04T02:06:38;4.90;56.10
76470;DHT22;65305;52.870;13.660;2023-03-04T02:09:05;4.90;56.20
76470;DHT22;65305;52.870;13.660;2023-03-04T02:11:31;4.90;56.10
76470;DHT22;65305;52.870;13.660;2023-03-04T02:13:58;4.90;56.10
76470;DHT22;65305;52.870;13.660;2023-03-04T02:16:25;4.90;56.10
76470;DHT22;65305;52.870;13.660;2023-03-04T02:18:51;4.90;56.20
76470;DHT22;65305;52.870;13.660;2023-03-04T02:21:21;4.90;56.10
76470;DHT22;65305;52.870;13.660;2023-03-04T02:26:33;4.90;56.00
76470;DHT22;65305;52.870;13.660;2023-03-04T02:29:00;4.90;56.00
76470;DHT22;65305;52.870;13.660;2023-03-04T02:31:30;4.90;56.10
76470;DHT22;65305;52.870;13.660;2023-03-04T02:33:58;4.90;56.10
76470;DHT22;65305;52.870;13.660;2023-03-04T02:36:25;4.90;56.10
76470;DHT22;65305;52.870;13.660;2023-03-04T02:38:52;4.90;56.00
76470;DHT22;65305;52.870;13.660;2023-03-04T02:41:23;4.90;56.00
76470;DHT22;65305;52.870;13.660;2023-03-04T02:43:51;4.90;56.10
76470;DHT22;65305;52.870;13.660;2023-03-04T02:46:18;4.90;56.00
76470;DHT22;65305;52.870;13.660;2023-03-04T02:48:44;4.90;56.10
76470;DHT22;65305;52.870;13.660;2023-03-04T02:51:11;4.90;56.10
76470;DHT22;65305;52.870;13.660;2023-03-04T02:53:37;4.90;56.10
76470;DHT22;65305;52.870;13.660;2023-03-04T02:56:04;4.80;56.20
76470;DHT22;65305;52.870;13.660;2023-03-04T02:58:30;4.90;56.30
76470;DHT22;65305;52.870;13.660;2023-03-04T03:00:57;4.80;56.20
76470;DHT22;65305;52.870;13.660;2023-03-04T03:03:24;4.80;56.20
76470;DHT22;65305;52.870;13.660;2023-03-04T03:05:50;4.80;56.30
76470;DHT22;65305;52.870;13.660;2023-03-04T03:08:17;4.80;56.20
76470;DHT22;65305;52.870;13.660;2023-03-04T03:10:43;4.80;56.20
76470;DHT22;65305;52.870;13.660;2023-03-04T03:13:10;4.80;56.20
76470;DHT22;65305;52.870;13.660;2023-03-04T03:15:36;4.80;56.20
76470;DHT22;65305;52.870;13.660;2023-03-04T03:18:10;4.80;56.20
76470;DHT22;65305;52.870;13.660;2023-03-04T03:20:37;4.80;56.20
76470;DHT22;65305;52.870;13.660;2023-03-04T03:23:03;4.80;56.20
76470;DHT22;65305;52.870;13.660;2023-03-04T03:25:30;4.80;56.20
76470;DHT22;65305;52.870;13.660;2023-03-04T03:27:56;4.80;56.20
76470;DHT22;65305;52.870;13.660;2023-03-04T03:30:23;4.80;56.20
76470;DHT22;65305;52.870;13.660;2023-03-04T03:32:49;4.80;56.20
76470;DHT22;65305;52.870;13.660;2023-03-04T03:35:16;4.70;56.20
76470;DHT22;65305;52.870;13.660;2023-03-04T03:37:42;4.70;56.20
76470;DHT22;65305;52.870;13.660;2023-03-04T03:40:09;4.70;56.20
76470;DHT22;65305;52.870;13.660;2023-03-04T03:42:35;4.70;56.20
76470;DHT22;65305;52.870;13.660;2023-03-04T03:45:02;4.70;56.30
76470;DHT22;65305;52.870;13.660;2023-03-04T03:47:28;4.70;56.30
76470;DHT22;65305;52.870;13.660;2023-03-04T03:49:55;4.70;56.40
76470;DHT22;65305;52.870;13.660;2023-03-04T03:52:21;4.70;56.50
76470;DHT22;65305;52.870;13.660;2023-03-04T03:54:48;4.70;56.40
76470;DHT22;65305;52.870;13.660;2023-03-04T03:57:14;4.70;56.30
76470;DHT22;65305;52.870;13.660;2023-03-04T03:59:41;4.70;56.20
76470;DHT22;65305;52.870;13.660;2023-03-04T04:02:07;4.70;56.20
76470;DHT22;65305;52.870;13.660;2023-03-04T04:04:34;4.70;56.20
76470;DHT22;65305;52.870;13.660;2023-03-04T04:07:00;4.70;56.40
76470;DHT22;65305;52.870;13.660;2023-03-04T04:09:27;4.70;56.30
76470;DHT22;65305;52.870;13.660;2023-03-04T04:11:53;4.70;56.20
76470;DHT22;65305;52.870;13.660;2023-03-04T04:14:20;4.70;56.40
76470;DHT22;65305;52.870;13.660;2023-03-04T04:16:46;4.70;56.30
76470;DHT22;65305;52.870;13.660;2023-03-04T04:19:17;4.70;56.30
76470;DHT22;65305;52.870;13.660;2023-03-04T04:21:44;4.70;56.30
76470;DHT22;65305;52.870;13.660;2023-03-04T04:24:10;4.70;56.40
76470;DHT22;65305;52.870;13.660;2023-03-04T04:26:37;4.70;56.30
76470;DHT22;65305;52.870;13.660;2023-03-04T04:29:03;4.70;56.30
76470;DHT22;65305;52.870;13.660;2023-03-04T04:31:30;4.70;56.50
76470;DHT22;65305;52.870;13.660;2023-03-04T04:33:56;4.70;56.50
76470;DHT22;65305;52.870;13.660;2023-03-04T04:36:23;4.70;56.50
76470;DHT22;65305;52.870;13.660;2023-03-04T04:38:49;4.70;56.50
76470;DHT22;65305;52.870;13.660;2023-03-04T04:41:17;4.70;56.70
76470;DHT22;65305;52.870;13.660;2023-03-04T04:43:45;4.70;56.60
76470;DHT22;65305;52.870;13.660;2023-03-04T04:46:12;4.70;56.50
76470;DHT22;65305;52.870;13.660;2023-03-04T04:48:38;4.70;56.40
76470;DHT22;65305;52.870;13.660;2023-03-04T04:51:05;4.70;56.50
76470;DHT22;65305;52.870;13.660;2023-03-04T04:53:31;4.70;56.50
76470;DHT22;65305;52.870;13.660;2023-03-04T04:55:58;4.70;56.50
76470;DHT22;65305;52.870;13.660;2023-03-04T04:58:25;4.70;56.50
76470;DHT22;65305;52.870;13.660;2023-03-04T05:00:51;4.70;56.60
76470;DHT22;65305;52.870;13.660;2023-03-04T05:03:20;4.70;56.60
76470;DHT22;65305;52.870;13.660;2023-03-04T05:05:46;4.70;56.50
76470;DHT22;65305;52.870;13.660;2023-03-04T05:08:13;4.70;56.60
76470;DHT22;65305;52.870;13.660;2023-03-04T05:10:40;4.70;56.50
76470;DHT22;65305;52.870;13.660;2023-03-04T05:13:06;4.70;56.50
76470;DHT22;65305;52.870;13.660;2023-03-04T05:15:33;4.70;56.50
76470;DHT22;65305;52.870;13.660;2023-03-04T05:17:59;4.70;56.50
76470;DHT22;65305;52.870;13.660;2023-03-04T05:20:26;4.70;56.50
76470;DHT22;65305;52.870;13.660;2023-03-04T05:22:52;4.70;56.50
76470;DHT22;65305;52.870;13.660;2023-03-04T05:25:19;4.70;56.50
76470;DHT22;65305;52.870;13.660;2023-03-04T05:27:45;4.70;56.60
76470;DHT22;65305;52.870;13.660;2023-03-04T05:30:12;4.60;56.60
76470;DHT22;65305;52.870;13.660;2023-03-04T05:32:38;4.60;56.70
76470;DHT22;65305;52.870;13.660;2023-03-04T05:35:04;4.70;56.70
76470;DHT22;65305;52.870;13.660;2023-03-04T05:37:31;4.60;56.60
76470;DHT22;65305;52.870;13.660;2023-03-04T05:39:58;4.70;56.80
76470;DHT22;65305;52.870;13.660;2023-03-04T05:42:24;4.60;56.70
76470;DHT22;65305;52.870;13.660;2023-03-04T05:44:50;4.60;56.70
76470;DHT22;65305;52.870;13.660;2023-03-04T05:47:17;4.60;56.60
76470;DHT22;65305;52.870;13.660;2023-03-04T05:49:43;4.60;56.90
76470;DHT22;65305;52.870;13.660;2023-03-04T05:52:10;4.60;56.80
76470;DHT22;65305;52.870;13.660;2023-03-04T05:54:36;4.60;56.80
76470;DHT22;65305;52.870;13.660;2023-03-04T05:57:03;4.60;56.80
76470;DHT22;65305;52.870;13.660;2023-03-04T05:59:29;4.60;56.70
76470;DHT22;65305;52.870;13.660;2023-03-04T06:01:56;4.60;56.80
76470;DHT22;65305;52.870;13.660;2023-03-04T06:04:22;4.50;56.80
76470;DHT22;65305;52.870;13.660;2023-03-04T06:06:49;4.60;56.80
76470;DHT22;65305;52.870;13.660;2023-03-04T06:09:15;4.60;56.80
76470;DHT22;65305;52.870;13.660;2023-03-04T06:11:42;4.60;57.00
76470;DHT22;65305;52.870;13.660;2023-03-04T06:14:08;4.50;56.80
76470;DHT22;65305;52.870;13.660;2023-03-04T06:16:34;4.50;57.00
76470;DHT22;65305;52.870;13.660;2023-03-04T06:19:01;4.60;57.00
76470;DHT22;65305;52.870;13.660;2023-03-04T06:21:28;4.60;56.90
76470;DHT22;65305;52.870;13.660;2023-03-04T06:23:54;4.60;56.90
76470;DHT22;65305;52.870;13.660;2023-03-04T06:26:20;4.60;57.00
76470;DHT22;65305;52.870;13.660;2023-03-04T06:28:47;4.50;57.20
76470;DHT22;65305;52.870;13.660;2023-03-04T06:31:13;4.60;57.00
76470;DHT22;65305;52.870;13.660;2023-03-04T06:33:40;4.50;57.10
76470;DHT22;65305;52.870;13.660;2023-03-04T06:36:06;4.50;57.20
76470;DHT22;65305;52.870;13.660;2023-03-04T06:38:33;4.50;57.10
76470;DHT22;65305;52.870;13.660;2023-03-04T06:41:08;4.50;57.10
76470;DHT22;65305;52.870;13.660;2023-03-04T06:43:34;4.50;57.10
76470;DHT22;65305;52.870;13.660;2023-03-04T06:46:01;4.50;57.20
76470;DHT22;65305;52.870;13.660;2023-03-04T06:48:28;4.50;57.20
76470;DHT22;65305;52.870;13.660;2023-03-04T06:50:54;4.50;57.20
76470;DHT22;65305;52.870;13.660;2023-03-04T06:53:20;4.50;57.30
76470;DHT22;65305;52.870;13.660;2023-03-04T06:55:47;4.50;57.20
76470;DHT22;65305;52.870;13.660;2023-03-04T06:58:14;4.50;57.40
76470;DHT22;65305;52.870;13.660;2023-03-04T07:00:42;4.50;57.30
76470;DHT22;65305;52.870;13.660;2023-03-04T07:03:10;4.50;57.50
76470;DHT22;65305;52.870;13.660;2023-03-04T07:05:37;4.50;57.30
76470;DHT22;65305;52.870;13.660;2023-03-04T07:08:03;4.50;57.50
76470;DHT22;65305;52.870;13.660;2023-03-04T07:10:31;4.50;57.50
76470;DHT22;65305;52.870;13.660;2023-03-04T07:12:58;4.50;57.40
76470;DHT22;65305;52.870;13.660;2023-03-04T07:15:24;4.50;57.40
76470;DHT22;65305;52.870;13.660;2023-03-04T07:17:51;4.50;57.40
76470;DHT22;65305;52.870;13.660;2023-03-04T07:20:18;4.50;57.60
76470;DHT22;65305;52.870;13.660;2023-03-04T07:22:45;4.50;57.40
76470;DHT22;65305;52.870;13.660;2023-03-04T07:25:11;4.50;57.70
76470;DHT22;65305;52.870;13.660;2023-03-04T07:27:38;4.50;57.70
76470;DHT22;65305;52.870;13.660;2023-03-04T07:30:06;4.50;57.80
76470;DHT22;65305;52.870;13.660;2023-03-04T07:32:32;4.50;57.60
76470;DHT22;65305;52.870;13.660;2023-03-04T07:35:02;4.50;57.50
76470;DHT22;65305;52.870;13.660;2023-03-04T07:37:29;4.50;57.90
76470;DHT22;65305;52.870;13.660;2023-03-04T07:39:56;4.50;57.70
76470;DHT22;65305;52.870;13.660;2023-03-04T07:42:22;4.50;57.70
76470;DHT22;65305;52.870;13.660;2023-03-04T07:44:49;4.50;57.80
76470;DHT22;65305;52.870;13.660;2023-03-04T07:47:15;4.50;57.70
76470;DHT22;65305;52.870;13.660;2023-03-04T07:49:42;4.50;57.60
76470;DHT22;65305;52.870;13.660;2023-03-04T07:52:08;4.50;57.60
76470;DHT22;65305;52.870;13.660;2023-03-04T07:54:35;4.50;57.50
76470;DHT22;65305;52.870;13.660;2023-03-04T07:57:01;4.50;58.00
76470;DHT22;65305;52.870;13.660;2023-03-04T07:59:28;4.50;58.30
76470;DHT22;65305;52.870;13.660;2023-03-04T08:01:54;4.50;58.20
76470;DHT22;65305;52.870;13.660;2023-03-04T08:04:21;4.50;58.50
76470;DHT22;65305;52.870;13.660;2023-03-04T08:06:47;4.50;58.40
76470;DHT22;65305;52.870;13.660;2023-03-04T08:09:13;4.50;58.30
76470;DHT22;65305;52.870;13.660;2023-03-04T08:11:40;4.50;58.40
76470;DHT22;65305;52.870;13.660;2023-03-04T08:14:07;4.50;58.50
76470;DHT22;65305;52.870;13.660;2023-03-04T08:16:34;4.50;58.50
76470;DHT22;65305;52.870;13.660;2023-03-04T08:19:01;4.50;58.50
76470;DHT22;65305;52.870;13.660;2023-03-04T08:21:28;4.50;58.50
76470;DHT22;65305;52.870;13.660;2023-03-04T08:23:56;4.50;58.50
76470;DHT22;65305;52.870;13.660;2023-03-04T08:26:25;4.50;58.30
76470;DHT22;65305;52.870;13.660;2023-03-04T08:28:52;4.50;58.30
76470;DHT22;65305;52.870;13.660;2023-03-04T08:31:19;4.50;58.30
76470;DHT22;65305;52.870;13.660;2023-03-04T08:33:46;4.50;58.40
76470;DHT22;65305;52.870;13.660;2023-03-04T08:36:13;4.50;58.20
76470;DHT22;65305;52.870;13.660;2023-03-04T08:38:39;4.50;58.20
76470;DHT22;65305;52.870;13.660;2023-03-04T08:41:06;4.50;58.20
76470;DHT22;65305;52.870;13.660;2023-03-04T08:43:32;4.50;58.20
76470;DHT22;65305;52.870;13.660;2023-03-04T08:45:59;4.50;58.10
76470;DHT22;65305;52.870;13.660;2023-03-04T08:48:26;4.50;58.10
76470;DHT22;65305;52.870;13.660;2023-03-04T08:50:52;4.50;58.20
76470;DHT22;65305;52.870;13.660;2023-03-04T08:53:19;4.50;58.20
76470;DHT22;65305;52.870;13.660;2023-03-04T08:55:46;4.50;58.20
76470;DHT22;65305;52.870;13.660;2023-03-04T08:58:12;4.50;58.10
76470;DHT22;65305;52.870;13.660;2023-03-04T09:00:40;4.50;58.20
76470;DHT22;65305;52.870;13.660;2023-03-04T09:03:09;4.50;58.00
76470;DHT22;65305;52.870;13.660;2023-03-04T09:05:36;4.50;58.00
76470;DHT22;65305;52.870;13.660;2023-03-04T09:08:03;4.50;58.00
76470;DHT22;65305;52.870;13.660;2023-03-04T09:10:30;4.50;58.20
76470;DHT22;65305;52.870;13.660;2023-03-04T09:12:57;4.50;58.30
76470;DHT22;65305;52.870;13.660;2023-03-04T09:15:23;4.50;58.30
76470;DHT22;65305;52.870;13.660;2023-03-04T09:17:50;4.50;58.20
76470;DHT22;65305;52.870;13.660;2023-03-04T09:20:16;4.50;58.20
76470;DHT22;65305;52.870;13.660;2023-03-04T09:22:42;4.50;58.20
76470;DHT22;65305;52.870;13.660;2023-03-04T09:25:10;4.50;58.30
76470;DHT22;65305;52.870;13.660;2023-03-04T09:27:37;4.50;58.20
76470;DHT22;65305;52.870;13.660;2023-03-04T09:30:04;4.40;58.00
76470;DHT22;65305;52.870;13.660;2023-03-04T09:32:30;4.50;58.20
76470;DHT22;65305;52.870;13.660;2023-03-04T09:34:57;4.50;58.30
76470;DHT22;65305;52.870;13.660;2023-03-04T09:37:23;4.50;58.30
76470;DHT22;65305;52.870;13.660;2023-03-04T09:39:50;4.50;58.40
76470;DHT22;65305;52.870;13.660;2023-03-04T09:42:41;4.40;58.30
76470;DHT22;65305;52.870;13.660;2023-03-04T09:45:10;4.50;58.30
76470;DHT22;65305;52.870;13.660;2023-03-04T09:47:39;4.50;58.30
76470;DHT22;65305;52.870;13.660;2023-03-04T09:50:06;4.50;58.20
76470;DHT22;65305;52.870;13.660;2023-03-04T09:52:41;4.50;58.40
76470;DHT22;65305;52.870;13.660;2023-03-04T09:55:15;4.50;58.50
76470;DHT22;65305;52.870;13.660;2023-03-04T09:57:59;4.50;58.30
76470;DHT22;65305;52.870;13.660;2023-03-04T10:00:35;4.50;58.10
76470;DHT22;65305;52.870;13.660;2023-03-04T10:03:17;4.50;58.20
76470;DHT22;65305;52.870;13.660;2023-03-04T10:05:55;4.50;58.30
76470;DHT22;65305;52.870;13.660;2023-03-04T10:08:37;4.50;58.30
76470;DHT22;65305;52.870;13.660;2023-03-04T10:11:27;4.50;58.30
76470;DHT22;65305;52.870;13.660;2023-03-04T10:16:21;4.50;58.20
76470;DHT22;65305;52.870;13.660;2023-03-04T10:18:53;4.40;58.20
76470;DHT22;65305;52.870;13.660;2023-03-04T10:23:48;4.50;58.30
76470;DHT22;65305;52.870;13.660;2023-03-04T10:26:16;4.50;58.20
76470;DHT22;65305;52.870;13.660;2023-03-04T10:28:45;4.50;58.20
76470;DHT22;65305;52.870;13.660;2023-03-04T10:33:57;4.50;58.20
76470;DHT22;65305;52.870;13.660;2023-03-04T10:38:57;4.50;58.00
76470;DHT22;65305;52.870;13.660;2023-03-04T10:41:24;4.50;58.20
76470;DHT22;65305;52.870;13.660;2023-03-04T10:46:29;4.50;58.10
76470;DHT22;65305;52.870;13.660;2023-03-04T10:48:55;4.50;58.20
76470;DHT22;65305;52.870;13.660;2023-03-04T10:51:23;4.50;58.10
76470;DHT22;65305;52.870;13.660;2023-03-04T10:54:00;4.50;58.10
76470;DHT22;65305;52.870;13.660;2023-03-04T10:56:32;4.50;58.20
76470;DHT22;65305;52.870;13.660;2023-03-04T11:01:43;4.50;58.10
76470;DHT22;65305;52.870;13.660;2023-03-04T11:04:19;4.50;58.00
76470;DHT22;65305;52.870;13.660;2023-03-04T11:06:50;4.50;58.10
76470;DHT22;65305;52.870;13.660;2023-03-04T11:09:22;4.50;58.10
76470;DHT22;65305;52.870;13.660;2023-03-04T11:11:50;4.50;58.10
76470;DHT22;65305;52.870;13.660;2023-03-04T11:14:27;4.50;58.10
76470;DHT22;65305;52.870;13.660;2023-03-04T11:17:00;4.50;58.10
76470;DHT22;65305;52.870;13.660;2023-03-04T11:19:30;4.50;58.10
76470;DHT22;65305;52.870;13.660;2023-03-04T11:22:00;4.50;58.10
76470;DHT22;65305;52.870;13.660;2023-03-04T11:24:27;4.50;58.10
76470;DHT22;65305;52.870;13.660;2023-03-04T11:27:05;4.50;58.10
76470;DHT22;65305;52.870;13.660;2023-03-04T11:29:42;4.50;58.20
76470;DHT22;65305;52.870;13.660;2023-03-04T11:32:17;4.50;58.10
76470;DHT22;65305;52.870;13.660;2023-03-04T11:40:50;4.50;58.20
76470;DHT22;65305;52.870;13.660;2023-03-04T11:43:37;4.50;58.20
76470;DHT22;65305;52.870;13.660;2023-03-04T11:46:24;4.50;58.20
76470;DHT22;65305;52.870;13.660;2023-03-04T11:54:31;4.50;58.10
76470;DHT22;65305;52.870;13.660;2023-03-04T11:57:05;4.50;58.10
76470;DHT22;65305;52.870;13.660;2023-03-04T11:59:48;4.50;58.20
76470;DHT22;65305;52.870;13.660;2023-03-04T12:02:20;4.50;58.20
76470;DHT22;65305;52.870;13.660;2023-03-04T12:07:39;4.50;58.10
76470;DHT22;65305;52.870;13.660;2023-03-04T12:10:29;4.50;58.20
76470;DHT22;65305;52.870;13.660;2023-03-04T12:13:19;4.50;58.00
76470;DHT22;65305;52.870;13.660;2023-03-04T12:15:59;4.50;58.10
76470;DHT22;65305;52.870;13.660;2023-03-04T12:21:09;4.40;58.10
76470;DHT22;65305;52.870;13.660;2023-03-04T12:24:00;4.50;58.20
76470;DHT22;65305;52.870;13.660;2023-03-04T12:26:41;4.50;58.00
76470;DHT22;65305;52.870;13.660;2023-03-04T12:29:26;4.50;58.10
76470;DHT22;65305;52.870;13.660;2023-03-04T12:31:58;4.50;58.10
76470;DHT22;65305;52.870;13.660;2023-03-04T12:34:36;4.50;58.10
76470;DHT22;65305;52.870;13.660;2023-03-04T12:37:13;4.50;58.10
76470;DHT22;65305;52.870;13.660;2023-03-04T12:42:48;4.50;58.10
76470;DHT22;65305;52.870;13.660;2023-03-04T12:45:19;4.50;58.10
76470;DHT22;65305;52.870;13.660;2023-03-04T12:50:36;4.50;58.10
76470;DHT22;65305;52.870;13.660;2023-03-04T12:53:07;4.50;58.00
76470;DHT22;65305;52.870;13.660;2023-03-04T12:55:39;4.50;58.10
76470;DHT22;65305;52.870;13.660;2023-03-04T12:58:08;4.50;58.10
76470;DHT22;65305;52.870;13.660;2023-03-04T13:00:43;4.50;58.00
76470;DHT22;65305;52.870;13.660;2023-03-04T13:08:32;4.50;58.00
76470;DHT22;65305;52.870;13.660;2023-03-04T13:11:01;4.50;58.00
76470;DHT22;65305;52.870;13.660;2023-03-04T13:13:32;4.50;58.00
76470;DHT22;65305;52.870;13.660;2023-03-04T13:16:23;4.50;58.00
76470;DHT22;65305;52.870;13.660;2023-03-04T13:18:46;4.50;58.00
76470;DHT22;65305;52.870;13.660;2023-03-04T13:23:39;4.50;58.00
76470;DHT22;65305;52.870;13.660;2023-03-04T13:29:29;4.50;58.00
76470;DHT22;65305;52.870;13.660;2023-03-04T13:32:09;4.50;58.00
76470;DHT22;65305;52.870;13.660;2023-03-04T13:34:44;4.50;58.00
76470;DHT22;65305;52.870;13.660;2023-03-04T13:37:27;4.50;58.00
76470;DHT22;65305;52.870;13.660;2023-03-04T13:42:41;4.50;57.90
76470;DHT22;65305;52.870;13.660;2023-03-04T13:45:29;4.50;57.90
76470;DHT22;65305;52.870;13.660;2023-03-04T13:47:54;4.50;57.90
76470;DHT22;65305;52.870;13.660;2023-03-04T13:50:26;4.50;58.00
76470;DHT22;65305;52.870;13.660;2023-03-04T13:52:57;4.50;58.00
76470;DHT22;65305;52.870;13.660;2023-03-04T13:57:58;4.50;58.00
76470;DHT22;65305;52.870;13.660;2023-03-04T14:00:24;4.50;57.90
76470;DHT22;65305;52.870;13.660;2023-03-04T14:02:51;4.40;57.90
76470;DHT22;65305;52.870;13.660;2023-03-04T14:05:18;4.50;57.90
76470;DHT22;65305;52.870;13.660;2023-03-04T14:07:44;4.50;57.90
76470;DHT22;65305;52.870;13.660;2023-03-04T14:12:45;4.50;57.90
76470;DHT22;65305;52.870;13.660;2023-03-04T14:17:40;4.50;57.90
76470;DHT22;65305;52.870;13.660;2023-03-04T14:20:23;4.50;57.90
76470;DHT22;65305;52.870;13.660;2023-03-04T14:22:50;4.50;57.90
76470;DHT22;65305;52.870;13.660;2023-03-04T14:25:22;4.50;57.90
76470;DHT22;65305;52.870;13.660;2023-03-04T14:27:49;4.50;57.90
76470;DHT22;65305;52.870;13.660;2023-03-04T14:30:23;4.50;58.00
76470;DHT22;65305;52.870;13.660;2023-03-04T14:32:51;4.50;57.90
76470;DHT22;65305;52.870;13.660;2023-03-04T14:35:19;4.50;57.90
76470;DHT22;65305;52.870;13.660;2023-03-04T14:38:04;4.50;57.90
76470;DHT22;65305;52.870;13.660;2023-03-04T14:40:51;4.50;57.90
76470;DHT22;65305;52.870;13.660;2023-03-04T14:43:21;4.50;57.90
76470;DHT22;65305;52.870;13.660;2023-03-04T14:45:51;4.50;58.00
76470;DHT22;65305;52.870;13.660;2023-03-04T14:48:19;4.50;58.00
76470;DHT22;65305;52.870;13.660;2023-03-04T14:50:48;4.50;58.00
76470;DHT22;65305;52.870;13.660;2023-03-04T14:53:16;4.50;58.00
76470;DHT22;65305;52.870;13.660;2023-03-04T14:58:28;4.50;58.10
76470;DHT22;65305;52.870;13.660;2023-03-04T15:03:45;4.50;58.20
76470;DHT22;65305;52.870;13.660;2023-03-04T15:06:18;4.50;58.20
76470;DHT22;65305;52.870;13.660;2023-03-04T15:08:45;4.50;58.20
76470;DHT22;65305;52.870;13.660;2023-03-04T15:11:25;4.50;58.20
76470;DHT22;65305;52.870;13.660;2023-03-04T15:13:52;4.50;58.30
76470;DHT22;65305;52.870;13.660;2023-03-04T15:16:21;4.50;58.20
76470;DHT22;65305;52.870;13.660;2023-03-04T15:18:58;4.50;58.30
76470;DHT22;65305;52.870;13.660;2023-03-04T15:21:31;4.50;58.20
76470;DHT22;65305;52.870;13.660;2023-03-04T15:23:59;4.50;58.20
76470;DHT22;65305;52.870;13.660;2023-03-04T15:26:28;4.50;58.20
76470;DHT22;65305;52.870;13.660;2023-03-04T15:28:55;4.50;58.20
76470;DHT22;65305;52.870;13.660;2023-03-04T15:31:22;4.50;58.20
76470;DHT22;65305;52.870;13.660;2023-03-04T15:33:49;4.50;58.20
76470;DHT22;65305;52.870;13.660;2023-03-04T15:36:16;4.50;58.20
76470;DHT22;65305;52.870;13.660;2023-03-04T15:38:45;4.50;58.20
76470;DHT22;65305;52.870;13.660;2023-03-04T15:41:14;4.50;58.20
76470;DHT22;65305;52.870;13.660;2023-03-04T15:43:43;4.50;58.20
76470;DHT22;65305;52.870;13.660;2023-03-04T15:46:10;4.50;58.20
76470;DHT22;65305;52.870;13.660;2023-03-04T15:48:37;4.50;58.20
76470;DHT22;65305;52.870;13.660;2023-03-04T15:51:05;4.50;58.20
76470;DHT22;65305;52.870;13.660;2023-03-04T15:53:35;4.50;58.30
76470;DHT22;65305;52.870;13.660;2023-03-04T15:56:22;4.50;58.20
76470;DHT22;65305;52.870;13.660;2023-03-04T15:58:56;4.50;58.30
76470;DHT22;65305;52.870;13.660;2023-03-04T16:01:24;4.50;58.50
76470;DHT22;65305;52.870;13.660;2023-03-04T16:03:50;4.50;58.30
76470;DHT22;65305;52.870;13.660;2023-03-04T16:06:18;4.50;58.30
76470;DHT22;65305;52.870;13.660;2023-03-04T16:08:46;4.50;58.20
76470;DHT22;65305;52.870;13.660;2023-03-04T16:11:14;4.50;58.20
76470;DHT22;65305;52.870;13.660;2023-03-04T16:13:41;4.50;58.30
76470;DHT22;65305;52.870;13.660;2023-03-04T16:16:11;4.50;58.30
76470;DHT22;65305;52.870;13.660;2023-03-04T16:18:38;4.50;58.30
76470;DHT22;65305;52.870;13.660;2023-03-04T16:21:05;4.50;58.30
76470;DHT22;65305;52.870;13.660;2023-03-04T16:23:34;4.50;58.20
76470;DHT22;65305;52.870;13.660;2023-03-04T16:26:05;4.50;58.30
76470;DHT22;65305;52.870;13.660;2023-03-04T16:28:36;4.50;58.20
76470;DHT22;65305;52.870;13.660;2023-03-04T16:31:02;4.50;58.30
76470;DHT22;65305;52.870;13.660;2023-03-04T16:33:29;4.50;58.30
76470;DHT22;65305;52.870;13.660;2023-03-04T16:35:55;4.50;58.20
76470;DHT22;65305;52.870;13.660;2023-03-04T16:38:29;4.50;58.20
76470;DHT22;65305;52.870;13.660;2023-03-04T16:40:57;4.50;58.20
76470;DHT22;65305;52.870;13.660;2023-03-04T16:43:23;4.50;58.20
76470;DHT22;65305;52.870;13.660;2023-03-04T16:45:50;4.50;58.20
76470;DHT22;65305;52.870;13.660;2023-03-04T16:48:16;4.50;58.20